Time;durP1;ratioP1;P1;durP2;ratioP2;P2;SDS_P1;SDS_P2;PMS_P1;PMS_P2;Temp;Humidity;BMP_temperature;BMP_pressure;BME280_temperature;BME280_humidity;BME280_pressure;Samples;Min_cycle;Max_cycle;Signal;HPM_P1;HPM_P2
2023/03/16 00:01:26;;;;;;;4.83;3.67;;;6.10;87.20;;;;;;5137264;27;20448;-59
2023/03/16 00:03:53;;;;;;;3.80;3.47;;;6.10;87.70;;;;;;5137629;27;20523;-59
2023/03/16 00:06:20;;;;;;;4.40;3.77;;;6.10;87.40;;;;;;5137119;27;20449;-59
2023/03/16 00:08:48;;;;;;;4.17;3.70;;;6.10;86.60;;;;;;5136962;27;20473;-59
2023/03/16 00:11:15;;;;;;;3.93;3.53;;;6.10;87.20;;;;;;5136928;27;20538;-59
2023/03/16 00:13:42;;;;;;;4.20;3.50;;;6.10;87.50;;;;;;5136851;27;20473;-59
2023/03/16 00:16:09;;;;;;;4.17;3.77;;;6.10;87.10;;;;;;5136736;27;20488;-59
2023/03/16 00:18:37;;;;;;;3.63;3.33;;;6.10;87.30;;;;;;5136876;27;20494;-58
2023/03/16 00:21:05;;;;;;;5.53;3.43;;;5.90;88.20;;;;;;5136966;27;20446;-59
2023/03/16 00:23:34;;;;;;;6.23;3.53;;;6.00;87.90;;;;;;5136615;27;20519;-58
2023/03/16 00:26:05;;;;;;;5.23;4.00;;;5.90;89.60;;;;;;5136364;27;21030;-59
2023/03/16 00:28:34;;;;;;;3.23;2.93;;;5.90;89.40;;;;;;5137539;27;20430;-58
2023/03/16 00:31:01;;;;;;;4.10;3.70;;;5.90;89.60;;;;;;5136215;27;20442;-59
2023/03/16 00:33:28;;;;;;;3.87;3.23;;;6.00;88.70;;;;;;5136441;27;20461;-59
2023/03/16 00:36:01;;;;;;;5.80;2.90;;;6.00;88.70;;;;;;5136058;27;20938;-59
2023/03/16 00:38:29;;;;;;;3.60;3.13;;;6.00;89.80;;;;;;5136138;27;20485;-59
2023/03/16 00:40:56;;;;;;;3.47;3.17;;;6.00;88.90;;;;;;5136412;27;20807;-59
2023/03/16 00:43:26;;;;;;;4.10;3.67;;;6.00;89.40;;;;;;5136194;27;20467;-59
2023/03/16 00:46:00;;;;;;;3.37;3.07;;;6.10;89.20;;;;;;5136211;27;20477;-59
2023/03/16 00:48:26;;;;;;;3.23;2.57;;;6.10;88.20;;;;;;5136174;27;20958;-59
2023/03/16 00:50:53;;;;;;;3.30;3.00;;;6.20;87.90;;;;;;5136102;27;20487;-58
2023/03/16 00:53:21;;;;;;;5.00;3.00;;;6.20;87.80;;;;;;5134530;27;20903;-58
2023/03/16 00:55:47;;;;;;;3.27;2.80;;;6.20;87.30;;;;;;5136037;27;20446;-59
2023/03/16 00:58:14;;;;;;;2.63;2.40;;;6.30;87.60;;;;;;5135954;27;20450;-59
2023/03/16 01:00:42;;;;;;;2.27;2.07;;;6.30;88.10;;;;;;5135952;27;20445;-59
2023/03/16 01:03:09;;;;;;;4.13;2.90;;;6.20;87.70;;;;;;5135875;27;20548;-59
2023/03/16 01:05:40;;;;;;;2.73;2.50;;;6.20;88.40;;;;;;5135503;27;20866;-59
2023/03/16 01:08:07;;;;;;;6.03;2.67;;;6.20;90.00;;;;;;5135715;27;20950;-59
2023/03/16 01:10:34;;;;;;;2.80;2.50;;;6.20;90.00;;;;;;5135692;27;20489;-58
2023/03/16 01:13:02;;;;;;;4.57;3.03;;;6.30;90.00;;;;;;5135657;27;20831;-59
2023/03/16 01:15:28;;;;;;;4.43;2.20;;;6.30;89.60;;;;;;5135624;27;20450;-59
2023/03/16 01:17:56;;;;;;;2.40;1.93;;;6.30;88.60;;;;;;5135494;27;20453;-59
2023/03/16 01:20:23;;;;;;;2.17;1.90;;;6.30;88.40;;;;;;5135647;27;20445;-59
2023/03/16 01:22:50;;;;;;;5.47;2.00;;;6.30;87.60;;;;;;5135407;27;20484;-58
2023/03/16 01:25:17;;;;;;;2.20;1.97;;;6.30;88.00;;;;;;5135421;27;20469;-59
2023/03/16 01:27:44;;;;;;;2.10;2.00;;;6.30;88.00;;;;;;5135244;27;20939;-59
2023/03/16 01:30:12;;;;;;;2.87;1.83;;;6.40;89.20;;;;;;5136200;27;20477;-59
2023/03/16 01:32:39;;;;;;;2.20;2.10;;;6.40;89.20;;;;;;5135285;27;20502;-59
2023/03/16 01:35:08;;;;;;;2.10;1.90;;;6.40;88.40;;;;;;5134941;27;21002;-58
2023/03/16 01:37:34;;;;;;;4.90;2.00;;;6.40;88.40;;;;;;5135087;27;20450;-59
2023/03/16 01:40:05;;;;;;;4.00;2.50;;;6.30;88.30;;;;;;5135047;27;20934;-59
2023/03/16 01:42:31;;;;;;;4.40;2.93;;;6.30;88.90;;;;;;5134788;27;21047;-58
2023/03/16 01:45:04;;;;;;;2.97;2.23;;;6.30;89.40;;;;;;5134824;27;20446;-59
2023/03/16 01:47:36;;;;;;;5.73;2.17;;;6.30;89.60;;;;;;5134760;27;20537;-59
2023/03/16 01:50:04;;;;;;;4.07;2.30;;;6.40;89.00;;;;;;5134971;27;20462;-59
2023/03/16 01:52:35;;;;;;;2.50;2.30;;;6.40;88.50;;;;;;5134835;27;20477;-59
2023/03/16 01:55:06;;;;;;;2.40;2.17;;;6.40;89.60;;;;;;5134812;27;20426;-59
2023/03/16 01:57:36;;;;;;;5.73;2.27;;;6.30;88.70;;;;;;5134935;27;20856;-59
2023/03/16 02:00:08;;;;;;;10.43;2.30;;;6.30;89.80;;;;;;5135044;27;20442;-59
2023/03/16 02:02:38;;;;;;;5.20;2.33;;;6.30;89.20;;;;;;5134734;27;20493;-59
2023/03/16 02:05:09;;;;;;;2.70;1.97;;;6.30;89.20;;;;;;5134894;27;20498;-59
2023/03/16 02:07:42;;;;;;;2.53;2.20;;;6.30;88.70;;;;;;5135085;27;20422;-59
2023/03/16 02:10:12;;;;;;;2.90;2.33;;;6.30;88.70;;;;;;5134599;27;20466;-59
2023/03/16 02:12:39;;;;;;;3.40;2.13;;;6.30;88.90;;;;;;5134658;27;20462;-59
2023/03/16 02:15:06;;;;;;;2.80;2.43;;;6.20;88.70;;;;;;5134579;27;20449;-58
2023/03/16 02:17:36;;;;;;;2.13;1.93;;;6.10;89.40;;;;;;5134849;27;20442;-59
2023/03/16 02:20:15;;;;;;;2.43;1.90;;;6.10;88.70;;;;;;5134471;27;20450;-58
2023/03/16 02:22:46;;;;;;;2.60;2.40;;;6.10;89.00;;;;;;5134565;27;20461;-58
2023/03/16 02:25:16;;;;;;;4.50;2.50;;;6.10;88.50;;;;;;5134281;27;20912;-58
2023/03/16 02:27:51;;;;;;;3.20;2.27;;;6.20;89.00;;;;;;5134436;27;20446;-58
2023/03/16 02:30:20;;;;;;;2.23;2.00;;;6.20;89.50;;;;;;5134107;27;20982;-58
2023/03/16 02:32:50;;;;;;;3.13;2.23;;;6.20;89.30;;;;;;5134505;27;20473;-58
2023/03/16 02:35:17;;;;;;;2.47;2.27;;;6.20;88.60;;;;;;5134345;27;20541;-58
2023/03/16 02:37:44;;;;;;;3.43;1.93;;;6.20;88.80;;;;;;5134292;28;20442;-59
2023/03/16 02:40:23;;;;;;;3.47;2.10;;;6.30;88.70;;;;;;5134563;28;20429;-59
2023/03/16 02:43:01;;;;;;;2.47;2.20;;;6.30;88.00;;;;;;5134494;27;20469;-58
2023/03/16 02:45:36;;;;;;;2.57;2.20;;;6.30;88.80;;;;;;5134080;28;20887;-58
2023/03/16 02:48:08;;;;;;;2.33;2.10;;;6.30;89.30;;;;;;5134484;28;20429;-58
2023/03/16 02:50:35;;;;;;;2.77;2.27;;;6.30;89.60;;;;;;5134407;28;20454;-58
2023/03/16 02:53:02;;;;;;;2.60;2.07;;;6.30;88.10;;;;;;5135357;27;20472;-58
2023/03/16 02:55:29;;;;;;;3.53;1.93;;;6.30;89.10;;;;;;5135835;28;20441;-58
2023/03/16 02:57:55;;;;;;;3.83;2.40;;;6.30;89.20;;;;;;5134812;28;20446;-58
2023/03/16 03:00:22;;;;;;;2.10;1.70;;;6.30;88.40;;;;;;5134740;28;20450;-58
2023/03/16 03:02:51;;;;;;;1.70;1.60;;;6.30;88.50;;;;;;5134167;27;20868;-59
2023/03/16 03:05:18;;;;;;;3.20;2.23;;;6.30;89.10;;;;;;5134048;28;20537;-57
2023/03/16 03:07:44;;;;;;;4.27;2.30;;;6.40;88.40;;;;;;5133951;28;20454;-57
2023/03/16 03:10:11;;;;;;;5.03;2.50;;;6.40;89.10;;;;;;5134012;28;20478;-58
2023/03/16 03:12:38;;;;;;;2.20;2.00;;;6.40;89.70;;;;;;5133676;27;20468;-58
2023/03/16 03:15:05;;;;;;;2.60;2.23;;;6.50;90.00;;;;;;5134537;27;20446;-58
2023/03/16 03:17:32;;;;;;;2.80;2.20;;;6.50;89.70;;;;;;5137950;27;20437;-59
2023/03/16 03:20:06;;;;;;;2.43;2.00;;;6.50;89.40;;;;;;5137965;27;20449;-58
2023/03/16 03:22:33;;;;;;;3.40;1.80;;;6.60;89.30;;;;;;5138034;27;20828;-58
2023/03/16 03:25:01;;;;;;;2.53;1.93;;;6.60;89.30;;;;;;5137450;27;20458;-58
2023/03/16 03:27:28;;;;;;;3.53;2.03;;;6.60;89.40;;;;;;5138120;27;20445;-59
2023/03/16 03:29:54;;;;;;;2.53;2.00;;;6.60;89.10;;;;;;5137378;27;21009;-58
2023/03/16 03:32:21;;;;;;;5.67;2.23;;;6.60;88.40;;;;;;5137740;27;20466;-59
2023/03/16 03:34:48;;;;;;;2.53;2.10;;;6.70;88.10;;;;;;5137719;27;20446;-58
2023/03/16 03:37:17;;;;;;;3.67;2.07;;;6.70;87.80;;;;;;5137493;27;20441;-58
2023/03/16 03:39:44;;;;;;;2.30;2.10;;;6.70;88.10;;;;;;5137164;27;20478;-58
2023/03/16 03:42:11;;;;;;;3.30;2.70;;;6.70;88.20;;;;;;5137445;27;20466;-58
2023/03/16 03:44:38;;;;;;;5.70;2.60;;;6.70;88.70;;;;;;5137096;27;20947;-58
2023/03/16 03:47:05;;;;;;;2.83;2.63;;;6.70;88.90;;;;;;5137040;27;20802;-58
2023/03/16 03:49:32;;;;;;;3.10;2.80;;;6.70;88.90;;;;;;5137293;27;20473;-58
2023/03/16 03:52:00;;;;;;;13.47;4.80;;;6.80;89.20;;;;;;5137284;27;20442;-58
2023/03/16 03:54:28;;;;;;;4.40;3.37;;;6.80;89.10;;;;;;5137323;27;20446;-58
2023/03/16 03:56:55;;;;;;;4.67;2.83;;;6.90;89.20;;;;;;5137269;27;20454;-58
2023/03/16 03:59:22;;;;;;;5.57;3.50;;;6.90;89.30;;;;;;5137138;27;20446;-58
2023/03/16 04:01:49;;;;;;;4.40;3.87;;;6.90;89.10;;;;;;5137070;27;20484;-58
2023/03/16 04:04:16;;;;;;;6.23;3.57;;;7.00;89.40;;;;;;5137333;27;20446;-59
2023/03/16 04:06:43;;;;;;;5.10;3.77;;;7.00;89.20;;;;;;5136715;27;20449;-59
2023/03/16 04:09:10;;;;;;;6.90;3.73;;;7.00;89.30;;;;;;5136990;27;20869;-59
2023/03/16 04:11:38;;;;;;;5.07;3.63;;;6.90;89.10;;;;;;5137096;27;20482;-59
2023/03/16 04:14:05;;;;;;;5.23;3.67;;;7.00;89.40;;;;;;5136816;27;20470;-59
2023/03/16 04:16:32;;;;;;;5.60;4.20;;;7.00;89.50;;;;;;5136799;27;20441;-59
2023/03/16 04:19:00;;;;;;;5.50;4.17;;;7.00;89.40;;;;;;5136896;27;20442;-59
2023/03/16 04:21:27;;;;;;;5.37;4.87;;;7.10;89.40;;;;;;5136642;27;20442;-59
2023/03/16 04:23:54;;;;;;;6.50;5.07;;;7.10;89.10;;;;;;5136649;27;20466;-59
2023/03/16 04:26:21;;;;;;;7.40;4.77;;;7.00;88.90;;;;;;5137025;27;20449;-59
2023/03/16 04:28:49;;;;;;;7.60;4.30;;;7.00;89.10;;;;;;5136370;27;20966;-59
2023/03/16 04:31:16;;;;;;;4.80;4.37;;;7.00;89.40;;;;;;5136450;27;20500;-59
2023/03/16 04:33:42;;;;;;;4.40;4.00;;;7.00;89.20;;;;;;5136604;27;20887;-59
2023/03/16 04:36:10;;;;;;;7.03;4.67;;;7.00;89.20;;;;;;5136775;27;20453;-59
2023/03/16 04:38:37;;;;;;;5.83;4.20;;;7.00;89.00;;;;;;5136256;27;20556;-59
2023/03/16 04:41:06;;;;;;;4.20;3.63;;;7.00;89.00;;;;;;5136479;27;20438;-59
2023/03/16 04:43:34;;;;;;;4.13;3.63;;;7.00;89.10;;;;;;5136457;27;20469;-59
2023/03/16 04:46:02;;;;;;;6.00;4.50;;;7.00;89.20;;;;;;5136365;27;20903;-59
2023/03/16 04:48:31;;;;;;;4.57;4.17;;;7.00;89.30;;;;;;5136250;27;20454;-59
2023/03/16 04:50:57;;;;;;;5.63;3.70;;;7.00;89.30;;;;;;5136139;27;20918;-59
2023/03/16 04:53:24;;;;;;;4.63;3.93;;;7.00;89.40;;;;;;5136015;27;20458;-59
2023/03/16 04:55:51;;;;;;;4.00;3.70;;;7.00;89.80;;;;;;5136003;27;20450;-59
2023/03/16 04:58:17;;;;;;;5.13;4.07;;;7.00;90.00;;;;;;5135990;27;20453;-59
2023/03/16 05:00:44;;;;;;;4.93;4.50;;;7.00;89.90;;;;;;5135626;27;20939;-59
2023/03/16 05:03:13;;;;;;;10.77;4.50;;;6.90;90.00;;;;;;5135761;27;20469;-59
2023/03/16 05:05:41;;;;;;;5.70;4.23;;;6.90;90.10;;;;;;5136081;27;20545;-59
2023/03/16 05:08:09;;;;;;;5.73;3.87;;;7.00;90.20;;;;;;5135805;27;20812;-59
2023/03/16 05:10:36;;;;;;;5.57;4.50;;;6.90;90.10;;;;;;5135388;27;21058;-59
2023/03/16 05:13:03;;;;;;;4.40;3.93;;;6.90;90.10;;;;;;5135543;27;20466;-59
2023/03/16 05:15:30;;;;;;;4.60;3.80;;;6.90;90.10;;;;;;5135296;27;20845;-59
2023/03/16 05:17:57;;;;;;;5.90;5.30;;;6.90;90.10;;;;;;5135552;27;20442;-59
2023/03/16 05:20:25;;;;;;;5.87;4.20;;;6.90;90.10;;;;;;5136337;27;20450;-59
2023/03/16 05:22:52;;;;;;;6.90;3.10;;;6.90;90.20;;;;;;5135409;27;20500;-59
2023/03/16 05:25:20;;;;;;;5.43;4.20;;;6.90;90.30;;;;;;5135487;27;20853;-59
2023/03/16 05:27:49;;;;;;;4.80;4.30;;;6.90;90.20;;;;;;5135891;27;20446;-59
2023/03/16 05:30:17;;;;;;;8.40;4.53;;;6.90;90.20;;;;;;5135181;27;20478;-59
2023/03/16 05:32:44;;;;;;;4.97;4.03;;;6.90;90.20;;;;;;5134929;27;20994;-59
2023/03/16 05:35:12;;;;;;;5.23;4.10;;;6.90;90.20;;;;;;5135247;27;20449;-59
2023/03/16 05:37:41;;;;;;;5.83;4.43;;;6.90;90.20;;;;;;5134712;27;20442;-59
2023/03/16 05:40:15;;;;;;;4.20;3.80;;;6.80;90.10;;;;;;5135663;27;20429;-59
2023/03/16 05:42:43;;;;;;;8.17;4.63;;;6.80;90.20;;;;;;5135055;27;20469;-59
2023/03/16 05:45:11;;;;;;;5.30;4.30;;;6.90;90.40;;;;;;5135237;27;20881;-59
2023/03/16 05:47:37;;;;;;;6.23;3.80;;;6.80;90.70;;;;;;5135116;27;20442;-59
2023/03/16 05:50:05;;;;;;;5.13;3.50;;;6.80;90.70;;;;;;5135904;27;20480;-59
2023/03/16 05:52:32;;;;;;;6.63;3.23;;;6.80;90.60;;;;;;5135465;27;20994;-59
2023/03/16 05:55:00;;;;;;;4.33;3.13;;;6.80;90.70;;;;;;5135682;27;20854;-59
2023/03/16 05:57:27;;;;;;;5.90;3.60;;;6.80;90.40;;;;;;5135378;27;20954;-59
2023/03/16 05:59:54;;;;;;;4.00;3.30;;;6.70;90.20;;;;;;5135168;27;20813;-59
2023/03/16 06:02:21;;;;;;;4.30;3.20;;;6.70;90.00;;;;;;5134825;27;20465;-59
2023/03/16 06:04:48;;;;;;;5.20;3.60;;;6.60;90.20;;;;;;5134971;27;20446;-59
2023/03/16 06:07:14;;;;;;;3.37;3.03;;;6.60;90.20;;;;;;5134486;27;20962;-59
2023/03/16 06:09:41;;;;;;;5.70;2.90;;;6.50;90.70;;;;;;5134379;27;20931;-59
2023/03/16 06:12:10;;;;;;;6.00;3.07;;;6.50;90.50;;;;;;5134748;27;20559;-59
2023/03/16 06:14:36;;;;;;;4.83;3.90;;;6.40;90.80;;;;;;5134718;27;20460;-59
2023/03/16 06:17:03;;;;;;;3.30;2.70;;;6.40;90.80;;;;;;5134284;27;20441;-59
2023/03/16 06:19:30;;;;;;;3.77;2.63;;;6.40;90.90;;;;;;5134331;27;20825;-59
2023/03/16 06:21:57;;;;;;;3.17;2.90;;;6.40;90.70;;;;;;5134433;27;20491;-59
2023/03/16 06:24:24;;;;;;;5.80;2.70;;;6.50;90.70;;;;;;5134443;27;20438;-58
2023/03/16 06:26:50;;;;;;;6.23;3.40;;;6.50;90.60;;;;;;5134798;27;20450;-58
2023/03/16 06:29:18;;;;;;;5.63;3.60;;;6.50;90.90;;;;;;5134485;27;20446;-59
2023/03/16 06:31:45;;;;;;;3.50;3.20;;;6.50;90.90;;;;;;5134450;27;20488;-58
2023/03/16 06:34:12;;;;;;;5.17;3.60;;;6.50;91.00;;;;;;5134417;27;20466;-59
2023/03/16 06:36:38;;;;;;;3.23;2.90;;;6.50;91.40;;;;;;5134370;27;20442;-58
2023/03/16 06:39:05;;;;;;;4.93;3.27;;;6.60;91.40;;;;;;5134359;28;20464;-59
2023/03/16 06:41:33;;;;;;;6.40;3.63;;;6.60;91.10;;;;;;5134328;28;20446;-59
2023/03/16 06:44:00;;;;;;;6.27;4.10;;;6.60;91.30;;;;;;5133851;27;21019;-58
2023/03/16 06:46:28;;;;;;;6.83;3.87;;;6.70;91.70;;;;;;5134176;28;20831;-58
2023/03/16 06:48:55;;;;;;;3.90;3.57;;;6.70;91.70;;;;;;5134190;27;20530;-58
2023/03/16 06:51:21;;;;;;;11.97;4.30;;;6.80;91.60;;;;;;5136828;27;20478;-59
2023/03/16 06:53:48;;;;;;;4.93;3.70;;;6.90;91.60;;;;;;5138063;27;20994;-59
2023/03/16 06:56:15;;;;;;;4.80;3.50;;;7.00;91.60;;;;;;5138138;27;20939;-59
2023/03/16 06:58:41;;;;;;;7.00;4.23;;;7.00;91.40;;;;;;5138383;27;20445;-59
2023/03/16 07:01:08;;;;;;;4.83;3.60;;;7.10;90.80;;;;;;5138287;27;20474;-58
2023/03/16 07:03:36;;;;;;;5.10;4.23;;;7.10;90.70;;;;;;5138246;27;20462;-59
2023/03/16 07:06:03;;;;;;;4.60;4.00;;;7.20;90.90;;;;;;5137951;27;20441;-58
2023/03/16 07:08:30;;;;;;;3.93;3.40;;;7.20;91.10;;;;;;5137850;27;20974;-59
2023/03/16 07:10:56;;;;;;;4.67;3.70;;;7.30;90.80;;;;;;5137722;27;20994;-59
2023/03/16 07:13:23;;;;;;;4.47;3.63;;;7.40;90.80;;;;;;5138079;27;20892;-59
2023/03/16 07:15:51;;;;;;;6.13;4.43;;;7.40;90.60;;;;;;5138011;27;20446;-59
2023/03/16 07:18:17;;;;;;;4.67;4.17;;;7.40;90.30;;;;;;5138017;27;20449;-59
2023/03/16 07:20:46;;;;;;;5.90;3.83;;;7.50;90.00;;;;;;5137603;27;20950;-59
2023/03/16 07:23:13;;;;;;;4.90;3.80;;;7.50;89.40;;;;;;5137939;27;20466;-59
2023/03/16 07:25:40;;;;;;;3.60;3.33;;;7.40;89.10;;;;;;5137731;27;20446;-59
2023/03/16 07:28:06;;;;;;;5.73;3.30;;;7.50;89.70;;;;;;5137760;27;20785;-59
2023/03/16 07:30:33;;;;;;;4.57;3.83;;;7.40;89.20;;;;;;5137695;27;20461;-58
2023/03/16 07:33:00;;;;;;;5.00;3.57;;;7.40;89.60;;;;;;5137578;27;20469;-58
2023/03/16 07:35:27;;;;;;;5.10;3.30;;;7.40;90.00;;;;;;5137639;27;20441;-58
2023/03/16 07:37:55;;;;;;;6.70;4.07;;;7.50;90.10;;;;;;5137289;27;20862;-58
2023/03/16 07:40:22;;;;;;;4.50;4.10;;;7.60;90.00;;;;;;5137494;27;20442;-59
2023/03/16 07:42:48;;;;;;;4.23;3.20;;;7.70;89.10;;;;;;5137487;27;20465;-59
2023/03/16 07:45:16;;;;;;;4.00;3.27;;;7.70;88.70;;;;;;5137393;27;20473;-59
2023/03/16 07:47:44;;;;;;;4.00;3.60;;;7.80;88.60;;;;;;5137043;27;21024;-58
2023/03/16 07:50:12;;;;;;;8.63;4.23;;;7.90;87.90;;;;;;5137349;27;20442;-58
2023/03/16 07:52:39;;;;;;;4.97;3.43;;;7.90;87.90;;;;;;5137285;27;20482;-58
2023/03/16 07:55:08;;;;;;;3.73;3.43;;;7.90;88.10;;;;;;5137291;27;20446;-59
2023/03/16 07:57:35;;;;;;;3.63;3.03;;;7.90;86.90;;;;;;5137210;27;20465;-59
2023/03/16 08:00:04;;;;;;;4.80;4.20;;;8.00;87.80;;;;;;5137127;27;20959;-59
2023/03/16 08:02:31;;;;;;;4.30;3.60;;;7.90;87.30;;;;;;5136411;27;20470;-59
2023/03/16 08:04:57;;;;;;;6.37;3.57;;;7.70;87.20;;;;;;5136775;27;20958;-58
2023/03/16 08:07:25;;;;;;;5.37;3.83;;;7.80;88.00;;;;;;5136662;27;21000;-58
2023/03/16 08:09:51;;;;;;;6.57;4.13;;;7.70;87.30;;;;;;5136977;27;20477;-58
2023/03/16 08:12:19;;;;;;;4.83;4.03;;;7.70;88.50;;;;;;5136800;27;20492;-59
2023/03/16 08:14:46;;;;;;;4.20;3.73;;;7.70;89.00;;;;;;5136881;27;20875;-58
2023/03/16 08:17:13;;;;;;;4.40;3.50;;;7.70;89.50;;;;;;5136881;27;20494;-58
2023/03/16 08:19:41;;;;;;;4.87;4.30;;;7.80;90.20;;;;;;5136761;27;20448;-58
2023/03/16 08:22:09;;;;;;;4.60;3.90;;;7.80;90.00;;;;;;5136710;27;20569;-58
2023/03/16 08:24:36;;;;;;;8.43;3.70;;;7.80;90.00;;;;;;5136655;27;20450;-58
2023/03/16 08:27:03;;;;;;;5.27;4.23;;;7.80;89.50;;;;;;5136583;27;20807;-58
2023/03/16 08:29:33;;;;;;;5.53;4.00;;;7.80;90.10;;;;;;5136594;27;20469;-58
2023/03/16 08:31:59;;;;;;;4.27;3.60;;;7.90;90.30;;;;;;5136392;27;20476;-58
2023/03/16 08:34:27;;;;;;;4.77;4.20;;;8.00;91.00;;;;;;5136493;27;20442;-58
2023/03/16 08:36:54;;;;;;;4.30;3.70;;;8.00;90.60;;;;;;5136411;27;20457;-58
2023/03/16 08:39:21;;;;;;;5.93;4.33;;;8.10;90.40;;;;;;5136295;27;20453;-59
2023/03/16 08:41:48;;;;;;;4.83;3.57;;;8.20;90.40;;;;;;5136455;27;20852;-59
2023/03/16 08:44:16;;;;;;;4.77;4.00;;;8.20;90.00;;;;;;5137002;27;20799;-58
2023/03/16 08:46:44;;;;;;;4.90;4.10;;;8.20;90.00;;;;;;5137319;27;20840;-58
2023/03/16 08:49:12;;;;;;;4.97;3.77;;;8.30;90.10;;;;;;5136590;27;20474;-59
2023/03/16 08:51:39;;;;;;;5.20;3.70;;;8.40;90.10;;;;;;5136485;27;20485;-58
2023/03/16 08:54:06;;;;;;;7.33;3.70;;;8.50;90.00;;;;;;5136161;27;20466;-58
2023/03/16 08:56:32;;;;;;;3.50;3.20;;;8.50;90.00;;;;;;5136826;27;20462;-58
2023/03/16 08:58:59;;;;;;;4.03;3.70;;;8.50;89.80;;;;;;5136160;27;20449;-59
2023/03/16 09:01:26;;;;;;;4.90;3.50;;;8.50;89.80;;;;;;5136228;27;20491;-59
2023/03/16 09:03:54;;;;;;;5.10;3.43;;;8.60;90.10;;;;;;5135958;27;20465;-59
2023/03/16 09:06:21;;;;;;;4.10;3.60;;;8.60;89.40;;;;;;5136386;27;20452;-59
2023/03/16 09:08:48;;;;;;;5.80;3.47;;;8.50;89.40;;;;;;5135933;27;20477;-58
2023/03/16 09:11:17;;;;;;;4.43;3.40;;;8.60;90.10;;;;;;5135731;27;20450;-58
2023/03/16 09:13:44;;;;;;;4.20;3.67;;;8.60;90.60;;;;;;5135067;27;20466;-58
2023/03/16 09:16:14;;;;;;;3.83;3.50;;;8.70;90.60;;;;;;5135666;27;20472;-58
2023/03/16 09:18:41;;;;;;;3.70;3.37;;;8.80;90.00;;;;;;5135762;27;20461;-58
2023/03/16 09:21:11;;;;;;;6.10;3.87;;;8.90;90.50;;;;;;5135627;27;20473;-58
2023/03/16 09:23:40;;;;;;;4.67;3.50;;;8.90;90.00;;;;;;5135537;27;20470;-58
2023/03/16 09:26:07;;;;;;;5.47;3.77;;;9.00;89.80;;;;;;5135512;27;20510;-58
2023/03/16 09:28:37;;;;;;;4.60;3.40;;;9.20;90.10;;;;;;5135439;27;20450;-58
2023/03/16 09:31:04;;;;;;;9.10;4.77;;;9.40;90.30;;;;;;5135491;27;20450;-58
2023/03/16 09:33:32;;;;;;;5.40;3.80;;;9.70;90.10;;;;;;5135319;27;20473;-58
2023/03/16 09:36:00;;;;;;;6.50;4.90;;;9.90;89.40;;;;;;5135365;27;20450;-59
2023/03/16 09:38:29;;;;;;;5.17;3.90;;;10.00;87.20;;;;;;5134897;27;21038;-59
2023/03/16 09:40:59;;;;;;;5.20;4.10;;;10.10;86.30;;;;;;5135328;27;20474;-59
2023/03/16 09:43:52;;;;;;;8.37;5.10;;;10.30;84.50;;;;;;5135187;27;20560;-59
2023/03/16 09:46:26;;;;;;;6.93;4.90;;;10.40;82.80;;;;;;5126073;27;20484;-59
2023/03/16 09:48:54;;;;;;;7.77;4.57;;;10.50;81.80;;;;;;5135649;27;20427;-59
2023/03/16 09:51:33;;;;;;;5.67;4.23;;;10.60;81.60;;;;;;5135485;27;20446;-59
2023/03/16 09:54:05;;;;;;;5.07;4.47;;;10.80;81.30;;;;;;5135290;27;20480;-59
2023/03/16 09:56:37;;;;;;;5.83;4.27;;;10.90;79.60;;;;;;5134665;27;20434;-59
2023/03/16 09:59:10;;;;;;;5.43;4.80;;;11.00;79.00;;;;;;5135754;27;20817;-59
2023/03/16 10:01:45;;;;;;;6.13;4.40;;;11.10;78.70;;;;;;5134833;27;20479;-59
2023/03/16 10:04:21;;;;;;;7.33;4.83;;;11.20;77.40;;;;;;5134733;27;20492;-59
2023/03/16 10:06:55;;;;;;;6.53;4.80;;;11.30;77.20;;;;;;5134722;27;20463;-59
2023/03/16 10:09:32;;;;;;;9.23;5.10;;;11.50;77.30;;;;;;5134793;27;20426;-59
2023/03/16 10:12:01;;;;;;;9.83;4.30;;;11.70;76.40;;;;;;5134540;27;20514;-59
2023/03/16 10:14:33;;;;;;;6.20;4.50;;;12.00;75.30;;;;;;5134578;27;20475;-59
2023/03/16 10:17:03;;;;;;;6.20;4.97;;;12.20;72.00;;;;;;5134637;27;20422;-59
2023/03/16 10:19:36;;;;;;;5.83;4.47;;;12.30;70.30;;;;;;5134555;27;20446;-59
2023/03/16 10:22:14;;;;;;;5.57;4.20;;;12.40;69.50;;;;;;5134493;27;20498;-59
2023/03/16 10:24:52;;;;;;;4.23;3.87;;;12.50;69.30;;;;;;5134369;27;20434;-59
2023/03/16 10:27:22;;;;;;;5.83;3.80;;;12.70;68.30;;;;;;5134573;27;20426;-59
2023/03/16 10:29:49;;;;;;;3.37;3.13;;;12.90;65.60;;;;;;5134432;27;20418;-59
2023/03/16 10:32:18;;;;;;;4.50;3.67;;;13.00;63.50;;;;;;5134232;27;20485;-59
2023/03/16 10:34:52;;;;;;;5.77;3.30;;;13.00;61.50;;;;;;5134098;27;20445;-59
2023/03/16 10:37:20;;;;;;;7.20;3.80;;;13.00;61.90;;;;;;5134371;27;20458;-59
2023/03/16 10:39:49;;;;;;;4.90;4.13;;;13.10;62.30;;;;;;5134195;28;20461;-59
2023/03/16 10:42:18;;;;;;;3.70;3.40;;;13.30;64.40;;;;;;5134238;27;20528;-59
2023/03/16 10:44:45;;;;;;;3.43;3.13;;;13.60;62.70;;;;;;5134253;28;20537;-59
2023/03/16 10:47:19;;;;;;;5.47;3.40;;;13.80;60.60;;;;;;5134251;28;20485;-59
2023/03/16 10:49:47;;;;;;;4.23;3.60;;;13.90;59.40;;;;;;5133890;28;20499;-59
2023/03/16 10:52:19;;;;;;;5.33;3.63;;;14.00;59.00;;;;;;5134027;27;20482;-59
2023/03/16 10:54:54;;;;;;;4.03;3.50;;;14.10;59.00;;;;;;5134162;28;20454;-59
2023/03/16 10:57:26;;;;;;;6.33;3.83;;;14.20;57.90;;;;;;5134176;28;20486;-58
2023/03/16 10:59:55;;;;;;;4.20;3.77;;;14.40;57.70;;;;;;5134205;28;20426;-58
2023/03/16 11:02:26;;;;;;;5.90;4.00;;;14.50;58.00;;;;;;5134002;27;20466;-59
2023/03/16 11:04:54;;;;;;;5.73;3.83;;;14.70;56.80;;;;;;5134038;28;20434;-58
2023/03/16 11:07:23;;;;;;;5.53;3.13;;;14.90;57.80;;;;;;5133984;28;20510;-58
2023/03/16 11:09:51;;;;;;;3.30;2.57;;;15.20;55.20;;;;;;5133995;28;20438;-59
2023/03/16 11:12:24;;;;;;;4.53;2.87;;;15.40;52.20;;;;;;5133831;27;20486;-58
2023/03/16 11:14:51;;;;;;;3.50;2.30;;;15.40;52.30;;;;;;5133931;28;20434;-58
2023/03/16 11:17:24;;;;;;;5.83;3.03;;;15.30;52.30;;;;;;5134164;28;20449;-58
2023/03/16 11:19:54;;;;;;;4.50;3.10;;;15.30;53.60;;;;;;5133986;28;20418;-58
2023/03/16 11:22:24;;;;;;;3.37;2.40;;;15.30;52.00;;;;;;5134154;27;20462;-58
2023/03/16 11:24:56;;;;;;;2.53;2.33;;;15.30;51.00;;;;;;5135004;28;20461;-58
2023/03/16 11:27:25;;;;;;;4.80;2.20;;;15.50;52.20;;;;;;5134024;28;20433;-58
2023/03/16 11:30:01;;;;;;;2.23;1.90;;;15.40;49.30;;;;;;5133873;28;20799;-58
2023/03/16 11:32:33;;;;;;;4.33;2.17;;;15.30;49.70;;;;;;5133718;27;20485;-58
2023/03/16 11:35:00;;;;;;;2.50;2.00;;;15.40;51.00;;;;;;5134006;28;20434;-58
2023/03/16 11:37:42;;;;;;;3.63;2.00;;;15.80;49.60;;;;;;5137811;27;20446;-58
2023/03/16 11:40:27;;;;;;;3.13;1.70;;;16.10;49.00;;;;;;5138626;27;21003;-58
2023/03/16 11:43:05;;;;;;;2.43;2.23;;;16.60;46.60;;;;;;5137991;27;20472;-58
2023/03/16 11:45:38;;;;;;;4.97;2.10;;;16.70;46.80;;;;;;5137965;27;20430;-58
2023/03/16 11:48:28;;;;;;;3.27;2.20;;;16.90;46.40;;;;;;5137497;27;20429;-58
2023/03/16 11:51:05;;;;;;;2.13;2.03;;;17.60;46.90;;;;;;5137579;27;20429;-59
2023/03/16 11:53:43;;;;;;;3.50;2.10;;;18.30;43.40;;;;;;5136983;27;20916;-59
2023/03/16 11:56:22;;;;;;;3.43;1.83;;;18.90;42.20;;;;;;5137341;27;20430;-58
2023/03/16 11:59:24;;;;;;;2.23;1.60;;;19.60;42.50;;;;;;5137253;27;20428;-59
2023/03/16 12:02:04;;;;;;;3.33;1.87;;;20.20;39.60;;;;;;5136799;27;20911;-59
2023/03/16 12:04:45;;;;;;;2.57;1.90;;;19.80;38.80;;;;;;5137263;27;20484;-58
2023/03/16 12:07:24;;;;;;;5.50;2.10;;;19.20;39.30;;;;;;5137234;27;20532;-58
2023/03/16 12:10:06;;;;;;;3.33;2.10;;;18.70;40.00;;;;;;5137055;27;20446;-58
2023/03/16 12:12:45;;;;;;;2.50;1.70;;;18.10;41.40;;;;;;5136921;27;20488;-58
2023/03/16 12:15:24;;;;;;;5.07;2.13;;;17.50;42.30;;;;;;5137056;27;20452;-58
2023/03/16 12:17:54;;;;;;;3.50;2.10;;;17.50;43.00;;;;;;5136974;27;20429;-58
2023/03/16 12:20:24;;;;;;;2.10;1.90;;;17.40;43.10;;;;;;5137186;27;20450;-59
2023/03/16 12:22:55;;;;;;;3.37;2.03;;;17.70;43.50;;;;;;5136959;27;20473;-59
2023/03/16 12:25:32;;;;;;;2.63;2.10;;;17.70;41.90;;;;;;5136509;27;20422;-59
2023/03/16 12:28:04;;;;;;;3.40;2.30;;;17.60;42.60;;;;;;5136745;27;20500;-58
2023/03/16 12:30:43;;;;;;;4.20;2.13;;;17.40;42.70;;;;;;5136751;27;20561;-58
2023/03/16 12:33:18;;;;;;;7.13;2.00;;;16.80;43.10;;;;;;5136122;27;20494;-58
2023/03/16 12:35:50;;;;;;;2.30;1.70;;;16.60;44.30;;;;;;5136609;27;20425;-58
2023/03/16 12:38:34;;;;;;;1.97;1.77;;;16.50;45.10;;;;;;5136955;27;20468;-58
2023/03/16 12:41:16;;;;;;;3.43;1.80;;;16.50;44.70;;;;;;5136934;27;20448;-58
2023/03/16 12:44:01;;;;;;;1.60;1.50;;;16.60;45.80;;;;;;5136333;27;20494;-58
2023/03/16 12:46:41;;;;;;;2.83;1.50;;;16.80;45.70;;;;;;5136431;27;20951;-58
2023/03/16 12:49:09;;;;;;;4.30;1.73;;;17.00;46.00;;;;;;5136345;27;20435;-58
2023/03/16 12:51:38;;;;;;;2.70;1.63;;;17.10;45.20;;;;;;5136342;27;20470;-59
2023/03/16 12:54:06;;;;;;;4.10;1.60;;;17.20;44.60;;;;;;5136065;27;20841;-59
2023/03/16 12:56:36;;;;;;;4.20;1.50;;;17.30;44.10;;;;;;5136077;27;20450;-59
2023/03/16 12:59:06;;;;;;;2.67;1.40;;;17.10;43.80;;;;;;5136081;27;20478;-59
2023/03/16 13:01:38;;;;;;;2.77;1.80;;;17.20;44.00;;;;;;5135560;27;20935;-58
2023/03/16 13:04:13;;;;;;;3.73;1.90;;;17.30;43.50;;;;;;5135877;27;20561;-59
2023/03/16 13:06:44;;;;;;;5.53;1.73;;;17.40;43.40;;;;;;5135795;27;20432;-59